Time;durP1;ratioP1;P1;durP2;ratioP2;P2;SDS_P1;SDS_P2;PMS_P1;PMS_P2;Temp;Humidity;BMP_temperature;BMP_pressure;BME280_temperature;BME280_humidity;BME280_pressure;Samples;Min_cycle;Max_cycle;Signal;HPM_P1;HPM_P2
2022/12/11 00:01:15;;;;;;;38.90;21.80;;;;;;;0.08;100.00;97745.14;105929;1283;61645;-79
2022/12/11 00:03:42;;;;;;;36.50;22.90;;;;;;;0.08;100.00;97741.64;105944;1292;65360;-78
2022/12/11 00:06:12;;;;;;;35.80;22.40;;;;;;;0.07;100.00;97737.85;105940;1290;59619;-78
2022/12/11 00:08:40;;;;;;;34.80;21.90;;;;;;;0.06;100.00;97734.60;105921;1291;64925;-79
2022/12/11 00:11:08;;;;;;;34.10;21.40;;;;;;;0.04;100.00;97729.09;105924;1290;59971;-79
2022/12/11 00:13:34;;;;;;;28.90;19.40;;;;;;;0.03;100.00;97719.70;105961;1291;59616;-78
2022/12/11 00:16:00;;;;;;;29.50;19.50;;;;;;;0.02;100.00;97715.40;105925;1284;59922;-79
2022/12/11 00:18:26;;;;;;;34.50;20.20;;;;;;;-0.00;100.00;97713.04;105961;1291;60158;-79
2022/12/11 00:20:52;;;;;;;31.30;18.90;;;;;;;-0.01;100.00;97711.69;105976;1276;60033;-78
2022/12/11 00:23:18;;;;;;;29.90;18.90;;;;;;;-0.03;100.00;97707.56;105934;1282;59639;-75
2022/12/11 00:25:46;;;;;;;31.90;20.10;;;;;;;-0.04;100.00;97702.88;105969;1292;59727;-79
2022/12/11 00:28:16;;;;;;;33.30;20.90;;;;;;;-0.05;100.00;97702.09;105953;1291;59888;-79
2022/12/11 00:30:42;;;;;;;34.20;20.30;;;;;;;-0.05;100.00;97700.85;105938;1285;61291;-77
2022/12/11 00:33:09;;;;;;;32.20;20.30;;;;;;;-0.05;100.00;97693.02;105942;1291;60679;-77
2022/12/11 00:35:45;;;;;;;38.20;22.00;;;;;;;-0.06;100.00;97694.42;105934;1290;59693;-78
2022/12/11 00:38:18;;;;;;;29.80;20.50;;;;;;;-0.06;100.00;97693.90;105782;1294;59953;-77
2022/12/11 00:40:45;;;;;;;32.60;21.50;;;;;;;-0.06;100.00;97699.52;105943;1295;65505;-78
2022/12/11 00:43:11;;;;;;;36.00;21.00;;;;;;;-0.06;100.00;97698.46;105905;1289;59640;-78
2022/12/11 00:45:41;;;;;;;33.70;21.50;;;;;;;-0.06;100.00;97693.40;105930;1291;62634;-76
2022/12/11 00:48:09;;;;;;;28.90;19.50;;;;;;;-0.07;100.00;97689.22;105577;1292;59745;-79
2022/12/11 00:50:36;;;;;;;30.30;19.30;;;;;;;-0.07;100.00;97687.83;105942;1292;59652;-79
2022/12/11 00:53:04;;;;;;;27.10;17.70;;;;;;;-0.07;100.00;97691.52;105935;1291;68302;-78
2022/12/11 00:55:31;;;;;;;30.50;20.10;;;;;;;-0.08;100.00;97692.98;105949;1291;68751;-79
2022/12/11 00:57:57;;;;;;;25.80;17.80;;;;;;;-0.08;100.00;97690.88;105918;1295;73954;-75
2022/12/11 01:00:23;;;;;;;27.00;18.20;;;;;;;-0.10;100.00;97686.40;105921;1290;59766;-79
2022/12/11 01:02:49;;;;;;;27.20;17.80;;;;;;;-0.10;100.00;97686.58;105975;1291;59601;-79
2022/12/11 01:05:16;;;;;;;23.00;16.80;;;;;;;-0.09;100.00;97688.81;105925;1292;60178;-80
2022/12/11 01:07:42;;;;;;;29.00;18.40;;;;;;;-0.09;100.00;97690.40;105797;1297;60049;-79
2022/12/11 01:10:24;;;;;;;27.80;18.10;;;;;;;-0.10;100.00;97692.17;104928;1287;1002443;-79
2022/12/11 01:13:01;;;;;;;25.70;17.40;;;;;;;-0.10;100.00;97693.06;105918;1287;59825;-79
2022/12/11 01:15:32;;;;;;;25.50;17.40;;;;;;;-0.10;100.00;97696.55;105941;1291;59703;-77
2022/12/11 01:17:58;;;;;;;27.60;18.20;;;;;;;-0.10;100.00;97697.24;105769;1292;75243;-79
2022/12/11 01:20:26;;;;;;;21.40;15.70;;;;;;;-0.09;100.00;97694.42;105960;1292;59752;-79
2022/12/11 01:22:57;;;;;;;22.90;15.40;;;;;;;-0.10;100.00;97686.42;105912;1291;64953;-78
2022/12/11 01:25:24;;;;;;;;;;;;;;;-0.11;100.00;97682.98;105966;1298;59618;-78
2022/12/11 01:27:51;;;;;;;22.60;15.90;;;;;;;-0.12;100.00;97678.84;105927;1287;59806;-79
2022/12/11 01:30:19;;;;;;;22.90;15.30;;;;;;;-0.13;100.00;97675.02;105944;1283;67989;-79
2022/12/11 01:32:45;;;;;;;24.10;17.60;;;;;;;-0.13;100.00;97670.86;105952;1281;61029;-79
2022/12/11 01:35:12;;;;;;;26.60;17.70;;;;;;;-0.12;100.00;97670.63;105746;1283;60208;-79
2022/12/11 01:37:38;;;;;;;27.60;18.70;;;;;;;-0.12;100.00;97670.11;105910;1290;59749;-78
2022/12/11 01:40:06;;;;;;;26.60;18.10;;;;;;;-0.13;100.00;97669.61;105948;1297;59951;-79
2022/12/11 01:42:33;;;;;;;25.50;17.50;;;;;;;-0.13;100.00;97665.98;105938;1290;74997;-79
2022/12/11 01:45:21;;;;;;;24.30;15.50;;;;;;;-0.13;100.00;97667.70;105959;1291;60462;-79
2022/12/11 01:47:52;;;;;;;26.40;17.70;;;;;;;-0.13;100.00;97671.02;105921;1282;64778;-78
2022/12/11 01:50:18;;;;;;;25.60;17.70;;;;;;;-0.14;100.00;97671.25;105937;1292;59646;-78
2022/12/11 01:52:48;;;;;;;27.90;17.40;;;;;;;-0.15;100.00;97666.90;105918;1290;59543;-79
2022/12/11 01:55:16;;;;;;;23.40;17.00;;;;;;;-0.14;100.00;97666.36;105948;1289;75547;-79
2022/12/11 01:57:45;;;;;;;28.60;18.70;;;;;;;-0.14;100.00;97664.79;105938;1288;61254;-76
2022/12/11 02:00:12;;;;;;;24.20;16.90;;;;;;;-0.15;100.00;97664.30;105934;1288;65132;-78
2022/12/11 02:02:39;;;;;;;26.10;18.00;;;;;;;-0.15;100.00;97661.69;105925;1290;59747;-78
2022/12/11 02:05:06;;;;;;;25.90;18.00;;;;;;;-0.15;100.00;97663.27;105937;1295;59713;-79
2022/12/11 02:07:45;;;;;;;26.80;17.10;;;;;;;-0.17;100.00;97664.90;105947;1297;66607;-79
2022/12/11 02:10:12;;;;;;;24.40;17.70;;;;;;;-0.17;100.00;97666.53;105963;1291;68355;-78
2022/12/11 02:12:40;;;;;;;27.20;18.60;;;;;;;-0.19;100.00;97664.14;105933;1292;62835;-79
2022/12/11 02:15:28;;;;;;;29.60;19.00;;;;;;;-0.20;100.00;97666.11;105928;1292;59709;-79
2022/12/11 02:18:12;;;;;;;25.90;18.10;;;;;;;-0.22;100.00;97663.91;105934;1290;59653;-78
2022/12/11 02:20:59;;;;;;;28.80;18.40;;;;;;;-0.23;100.00;97669.02;105938;1295;66850;-77
2022/12/11 02:23:49;;;;;;;25.70;17.40;;;;;;;-0.24;100.00;97670.45;105931;1289;61176;-79
2022/12/11 02:26:54;;;;;;;25.80;15.90;;;;;;;-0.26;100.00;97665.98;105946;1287;62879;-77
2022/12/11 02:29:38;;;;;;;24.20;16.00;;;;;;;-0.28;100.00;97663.11;105900;1292;59752;-77
2022/12/11 02:32:32;;;;;;;23.90;15.20;;;;;;;-0.30;100.00;97660.41;105920;1290;59531;-78
2022/12/11 02:35:09;;;;;;;24.80;15.90;;;;;;;-0.32;100.00;97662.60;105944;1292;67813;-74
2022/12/11 02:37:38;;;;;;;23.90;16.40;;;;;;;-0.33;100.00;97663.55;105720;1292;61118;-78
2022/12/11 02:40:08;;;;;;;22.90;15.80;;;;;;;-0.34;100.00;97658.86;105899;1291;74124;-78
2022/12/11 02:42:36;;;;;;;24.30;16.00;;;;;;;-0.36;100.00;97654.41;105924;1291;60048;-78
2022/12/11 02:45:05;;;;;;;25.20;17.20;;;;;;;-0.36;100.00;97654.09;105952;1287;59814;-78
2022/12/11 02:47:32;;;;;;;25.80;17.40;;;;;;;-0.37;100.00;97649.42;105595;1292;68170;-77
2022/12/11 02:50:02;;;;;;;27.20;18.00;;;;;;;-0.36;100.00;97645.70;105963;1289;60237;-77
2022/12/11 02:52:31;;;;;;;28.70;19.30;;;;;;;-0.36;100.00;97645.00;105943;1289;65264;-78
2022/12/11 02:55:00;;;;;;;29.80;19.50;;;;;;;-0.36;100.00;97639.91;105923;1292;59683;-78
2022/12/11 02:57:38;;;;;;;31.40;19.40;;;;;;;-0.34;100.00;97642.98;105923;1289;59709;-76
2022/12/11 03:00:35;;;;;;;28.90;19.20;;;;;;;-0.32;100.00;97642.71;105772;1286;75259;-78
2022/12/11 03:03:02;;;;;;;30.80;18.60;;;;;;;-0.32;100.00;97644.30;105934;1294;59780;-78
2022/12/11 03:05:28;;;;;;;27.10;17.70;;;;;;;-0.32;100.00;97637.98;105901;1292;59961;-78
2022/12/11 03:07:55;;;;;;;28.30;19.10;;;;;;;-0.32;100.00;97635.20;105785;1292;59817;-78
2022/12/11 03:10:21;;;;;;;32.70;19.70;;;;;;;-0.32;100.00;97635.76;105662;1298;59871;-79
2022/12/11 03:12:52;;;;;;;32.30;20.00;;;;;;;-0.33;100.00;97636.46;105884;1292;60084;-79
2022/12/11 03:15:20;;;;;;;32.90;20.70;;;;;;;-0.34;100.00;97635.30;105943;1290;61301;-78
2022/12/11 03:17:54;;;;;;;29.80;19.10;;;;;;;-0.34;100.00;97643.66;105929;1292;65042;-78
2022/12/11 03:20:30;;;;;;;31.10;20.20;;;;;;;-0.36;100.00;97642.54;105927;1292;59719;-74
2022/12/11 03:23:41;;;;;;;30.40;19.70;;;;;;;-0.36;100.00;97640.48;105928;1292;59782;-77
2022/12/11 03:26:11;;;;;;;27.70;17.50;;;;;;;-0.38;100.00;97638.98;105440;1297;75459;-79
2022/12/11 03:28:38;;;;;;;;;;;;;;;-0.41;100.00;97632.29;105458;1302;68410;-78
2022/12/11 03:31:12;;;;;;;25.70;16.60;;;;;;;-0.42;100.00;97633.06;105440;1297;59962;-78
2022/12/11 03:33:46;;;;;;;29.20;18.20;;;;;;;-0.45;100.00;97631.94;105466;1303;59774;-77
2022/12/11 03:36:26;;;;;;;30.00;19.10;;;;;;;-0.45;100.00;97628.99;105470;1301;59757;-77
2022/12/11 03:38:57;;;;;;;26.90;17.60;;;;;;;-0.47;100.00;97623.67;105385;1306;68328;-79
2022/12/11 03:41:26;;;;;;;28.50;16.80;;;;;;;-0.49;100.00;97623.39;105464;1296;69780;-78
2022/12/11 03:43:57;;;;;;;27.60;17.90;;;;;;;-0.50;100.00;97620.11;105440;1291;64135;-78
2022/12/11 03:46:29;;;;;;;27.30;17.20;;;;;;;-0.50;100.00;97614.91;105449;1296;59854;-79
2022/12/11 03:49:00;;;;;;;25.80;16.40;;;;;;;-0.51;100.00;97614.95;105442;1303;59746;-77
2022/12/11 03:51:29;;;;;;;29.10;17.50;;;;;;;-0.52;100.00;97616.75;105456;1298;67694;-78
2022/12/11 03:53:56;;;;;;;26.40;16.30;;;;;;;-0.53;100.00;97614.33;105472;1287;59927;-78
2022/12/11 03:56:27;;;;;;;27.50;16.50;;;;;;;-0.53;100.00;97615.03;105439;1297;72379;-78
2022/12/11 03:58:54;;;;;;;25.70;16.60;;;;;;;-0.54;100.00;97613.14;105387;1297;59948;-78
2022/12/11 04:01:20;;;;;;;31.30;18.40;;;;;;;-0.53;100.00;97618.54;105443;1296;59803;-78
2022/12/11 04:03:46;;;;;;;28.90;17.80;;;;;;;-0.54;100.00;97618.91;105732;1299;59881;-78
2022/12/11 04:06:12;;;;;;;27.80;17.40;;;;;;;-0.54;100.00;97619.45;105926;1291;60574;-78
2022/12/11 04:08:38;;;;;;;29.80;18.00;;;;;;;-0.54;100.00;97618.40;105766;1289;60696;-79
2022/12/11 04:15:00;;;;;;;25.80;16.40;;;;;;;-0.55;100.00;97612.89;105927;1289;60048;-79
2022/12/11 04:16:35;;;;;;;28.00;18.40;;;;;;;-0.55;100.00;97610.78;105928;1284;74698;-79
2022/12/11 04:24:33;;;;;;;27.00;16.20;;;;;;;-0.56;100.00;97603.85;105179;1291;1002711;-79
2022/12/11 04:26:59;;;;;;;25.30;15.20;;;;;;;-0.56;100.00;97614.12;105760;1299;59933;-79
2022/12/11 04:29:25;;;;;;;27.30;15.60;;;;;;;-0.56;100.00;97615.69;105921;1288;60109;-79
2022/12/11 04:31:53;;;;;;;24.80;15.20;;;;;;;-0.57;100.00;97614.52;105926;1283;61546;-79
2022/12/11 04:34:19;;;;;;;27.90;17.90;;;;;;;-0.57;100.00;97612.45;105921;1289;65203;-79
2022/12/11 04:36:45;;;;;;;26.60;16.70;;;;;;;-0.57;100.00;97606.85;105928;1295;59717;-79
2022/12/11 04:39:10;;;;;;;24.50;15.70;;;;;;;-0.57;100.00;97600.74;105943;1291;59973;-80
2022/12/11 04:41:37;;;;;;;28.00;16.40;;;;;;;-0.58;100.00;97595.36;105914;1290;59788;-79
2022/12/11 04:44:04;;;;;;;27.90;16.70;;;;;;;-0.58;100.00;97599.76;105953;1291;60138;-78
2022/12/11 04:46:32;;;;;;;27.20;15.70;;;;;;;-0.59;100.00;97599.77;105796;1284;60010;-79
2022/12/11 04:48:59;;;;;;;24.80;16.10;;;;;;;-0.59;100.00;97600.15;105919;1291;59682;-79
2022/12/11 04:51:26;;;;;;;27.00;14.80;;;;;;;-0.59;100.00;97602.58;105943;1288;59674;-78
2022/12/11 04:53:53;;;;;;;26.20;16.40;;;;;;;-0.59;100.00;97598.92;105937;1290;67905;-79
2022/12/11 04:56:19;;;;;;;27.80;17.10;;;;;;;-0.59;100.00;97594.04;105934;1285;59756;-79
2022/12/11 04:58:46;;;;;;;31.40;19.70;;;;;;;-0.59;100.00;97593.02;105942;1292;59768;-79
2022/12/11 05:01:15;;;;;;;31.80;19.40;;;;;;;-0.60;100.00;97592.50;105916;1290;59839;-78
2022/12/11 05:03:42;;;;;;;35.10;19.70;;;;;;;-0.60;100.00;97593.73;105949;1290;59858;-79
2022/12/11 05:06:09;;;;;;;32.40;19.80;;;;;;;-0.61;100.00;97593.58;105917;1283;68163;-78
2022/12/11 05:08:40;;;;;;;30.50;18.00;;;;;;;-0.61;100.00;97590.46;105940;1290;59691;-75
2022/12/11 05:11:09;;;;;;;35.10;20.00;;;;;;;-0.62;100.00;97582.86;105609;1298;71566;-79
2022/12/11 05:13:35;;;;;;;30.10;17.90;;;;;;;-0.63;100.00;97586.70;105939;1291;59732;-79
2022/12/11 05:16:06;;;;;;;30.50;18.20;;;;;;;-0.63;100.00;97587.77;105924;1291;59550;-79
2022/12/11 05:18:32;;;;;;;31.00;17.80;;;;;;;-0.63;100.00;97586.20;105934;1292;74826;-79
2022/12/11 05:21:03;;;;;;;31.10;18.10;;;;;;;-0.64;100.00;97586.92;105947;1290;59636;-79
2022/12/11 05:23:30;;;;;;;30.00;17.70;;;;;;;-0.64;100.00;97582.23;105945;1289;64101;-78
2022/12/11 05:26:00;;;;;;;30.80;19.50;;;;;;;-0.65;100.00;97585.24;105917;1295;60178;-79
2022/12/11 05:28:28;;;;;;;33.10;20.70;;;;;;;-0.66;100.00;97587.88;105947;1291;59605;-79
2022/12/11 05:30:59;;;;;;;32.80;19.30;;;;;;;-0.67;100.00;97583.92;105949;1290;66786;-79
2022/12/11 05:33:27;;;;;;;33.10;19.70;;;;;;;-0.68;100.00;97587.29;105948;1283;61225;-80
2022/12/11 05:35:53;;;;;;;37.40;21.20;;;;;;;-0.68;100.00;97589.35;105928;1290;65067;-80
2022/12/11 05:38:19;;;;;;;32.80;18.70;;;;;;;-0.67;100.00;97588.98;105927;1290;59749;-80
2022/12/11 05:40:56;;;;;;;34.20;20.10;;;;;;;-0.68;100.00;97588.52;105901;1285;59743;-80
2022/12/11 05:43:22;;;;;;;31.70;19.70;;;;;;;-0.70;100.00;97587.36;105946;1291;66741;-81
2022/12/11 05:45:48;;;;;;;29.80;18.00;;;;;;;-0.72;100.00;97588.12;105962;1290;59831;-81
2022/12/11 05:48:16;;;;;;;29.40;18.30;;;;;;;-0.74;100.00;97584.73;105722;1287;60015;-78
2022/12/11 05:50:42;;;;;;;28.40;17.70;;;;;;;-0.76;100.00;97582.91;105931;1290;59741;-79
2022/12/11 05:53:08;;;;;;;26.50;17.20;;;;;;;-0.77;100.00;97579.65;105942;1289;59586;-79
2022/12/11 05:55:34;;;;;;;28.60;18.70;;;;;;;-0.79;100.00;97580.44;105925;1291;59749;-78
2022/12/11 05:58:00;;;;;;;28.20;17.10;;;;;;;-0.80;100.00;97579.95;105945;1290;59773;-80
2022/12/11 06:00:26;;;;;;;28.10;17.30;;;;;;;-0.81;100.00;97580.20;105907;1290;59789;-80
2022/12/11 06:02:52;;;;;;;36.50;20.90;;;;;;;-0.82;100.00;97581.09;105955;1290;59848;-81
2022/12/11 06:05:17;;;;;;;30.00;18.90;;;;;;;-0.82;100.00;97579.86;105968;1283;59746;-80
2022/12/11 06:07:43;;;;;;;33.60;20.70;;;;;;;-0.81;100.00;97576.73;105995;1291;59753;-79
2022/12/11 06:10:10;;;;;;;37.10;21.80;;;;;;;-0.81;100.00;97584.05;105917;1290;65720;-80
2022/12/11 06:12:36;;;;;;;34.60;20.80;;;;;;;-0.81;100.00;97585.26;105951;1291;59862;-80
2022/12/11 06:15:04;;;;;;;35.10;21.20;;;;;;;-0.82;100.00;97588.77;105947;1289;59710;-80
2022/12/11 06:17:33;;;;;;;33.60;21.40;;;;;;;-0.83;100.00;97585.31;105647;1292;67666;-80
2022/12/11 06:19:58;;;;;;;29.60;18.20;;;;;;;-0.85;100.00;97586.45;105935;1291;69195;-79
2022/12/11 06:22:24;;;;;;;30.90;18.10;;;;;;;-0.86;100.00;97595.23;105958;1291;60278;-80
2022/12/11 06:24:52;;;;;;;28.00;17.70;;;;;;;-0.89;100.00;97595.67;105918;1290;59782;-80
2022/12/11 06:27:18;;;;;;;31.00;18.90;;;;;;;-0.91;100.00;97594.36;105924;1291;59650;-79
2022/12/11 06:29:45;;;;;;;29.70;18.30;;;;;;;-0.91;100.00;97598.40;105951;1281;59802;-80
2022/12/11 06:32:12;;;;;;;27.70;18.20;;;;;;;-0.92;100.00;97601.24;105918;1290;61302;-79
2022/12/11 06:34:38;;;;;;;33.90;20.30;;;;;;;-0.93;100.00;97600.73;105651;1293;59829;-80
2022/12/11 06:37:04;;;;;;;31.00;18.30;;;;;;;-0.92;100.00;97600.34;105941;1290;59768;-80
2022/12/11 06:39:30;;;;;;;32.80;20.10;;;;;;;-0.93;100.00;97594.98;105653;1293;59888;-80
2022/12/11 06:41:56;;;;;;;32.60;19.80;;;;;;;-0.95;100.00;97601.36;105929;1288;59799;-80
2022/12/11 06:44:22;;;;;;;29.50;19.20;;;;;;;-0.96;100.00;97602.61;105938;1291;59756;-79
2022/12/11 06:46:48;;;;;;;32.00;20.70;;;;;;;-0.96;100.00;97606.46;105912;1290;59805;-79
2022/12/11 06:49:15;;;;;;;33.60;21.50;;;;;;;-0.97;100.00;97606.32;105954;1283;59744;-80
2022/12/11 06:51:40;;;;;;;38.90;22.70;;;;;;;-0.96;100.00;97605.92;105953;1289;60025;-80
2022/12/11 06:54:08;;;;;;;37.70;22.20;;;;;;;-0.96;100.00;97607.16;105954;1284;59800;-80
2022/12/11 06:56:35;;;;;;;39.20;23.80;;;;;;;-0.95;100.00;97611.28;105925;1291;60202;-81
2022/12/11 06:59:00;;;;;;;35.60;22.10;;;;;;;-0.93;100.00;97611.91;105927;1291;59698;-76
2022/12/11 07:01:28;;;;;;;42.40;23.70;;;;;;;-0.93;100.00;97613.13;105947;1289;59813;-80
2022/12/11 07:03:59;;;;;;;34.20;20.60;;;;;;;-0.93;100.00;97607.87;105940;1291;59661;-81
2022/12/11 07:06:25;;;;;;;;;;;;;;;-0.93;100.00;97607.70;105788;1284;74334;-78
2022/12/11 07:08:53;;;;;;;32.30;20.00;;;;;;;-0.92;100.00;97612.41;105943;1285;68363;-80
2022/12/11 07:11:20;;;;;;;32.50;21.00;;;;;;;-0.92;100.00;97614.66;105743;1284;72523;-80
2022/12/11 07:13:46;;;;;;;31.40;19.80;;;;;;;-0.92;100.00;97616.39;105952;1291;59830;-78
2022/12/11 07:16:14;;;;;;;32.50;20.50;;;;;;;-0.91;100.00;97617.23;105945;1284;59833;-80
2022/12/11 07:18:45;;;;;;;32.50;19.70;;;;;;;-0.90;100.00;97618.39;104330;1292;1003055;-76
2022/12/11 07:21:12;;;;;;;31.80;19.10;;;;;;;-0.89;100.00;97623.23;105940;1289;69728;-79
2022/12/11 07:23:39;;;;;;;29.30;19.00;;;;;;;-0.89;100.00;97628.10;105914;1276;72471;-78
2022/12/11 07:26:15;;;;;;;31.30;19.30;;;;;;;-0.87;100.00;97629.79;105929;1290;59780;-77
2022/12/11 07:28:41;;;;;;;29.30;19.60;;;;;;;-0.86;100.00;97634.45;105909;1290;59644;-79
2022/12/11 07:31:14;;;;;;;28.70;17.90;;;;;;;-0.85;100.00;97640.88;105934;1285;67686;-78
2022/12/11 07:33:41;;;;;;;28.50;17.90;;;;;;;-0.85;100.00;97644.70;105945;1290;59724;-77
2022/12/11 07:36:09;;;;;;;27.10;18.00;;;;;;;-0.84;100.00;97642.39;105914;1291;65189;-77
2022/12/11 07:38:36;;;;;;;28.10;18.30;;;;;;;-0.83;100.00;97638.16;105914;1291;59690;-78
2022/12/11 07:41:09;;;;;;;29.20;18.40;;;;;;;-0.82;100.00;97641.08;105952;1283;59631;-78
2022/12/11 07:43:35;;;;;;;28.10;17.50;;;;;;;-0.81;100.00;97643.30;105930;1283;67905;-78
2022/12/11 07:46:04;;;;;;;28.80;18.20;;;;;;;-0.79;100.00;97640.94;105942;1283;60262;-78
2022/12/11 07:48:30;;;;;;;31.00;19.50;;;;;;;-0.76;100.00;97642.90;105919;1290;63900;-78
2022/12/11 07:51:16;;;;;;;25.70;17.30;;;;;;;-0.75;100.00;97644.44;105932;1289;59753;-78
2022/12/11 07:53:44;;;;;;;27.50;18.70;;;;;;;-0.74;100.00;97645.45;105945;1287;60726;-78
2022/12/11 07:56:10;;;;;;;31.90;20.80;;;;;;;-0.74;100.00;97642.99;105803;1292;65266;-77
2022/12/11 07:58:37;;;;;;;28.40;18.80;;;;;;;-0.73;100.00;97643.65;105663;1295;59876;-79
2022/12/11 08:01:05;;;;;;;33.50;21.40;;;;;;;-0.73;100.00;97642.60;105993;1287;63959;-80
2022/12/11 08:03:31;;;;;;;33.60;23.50;;;;;;;-0.72;100.00;97643.95;105955;1290;60096;-80
2022/12/11 08:05:56;;;;;;;34.40;23.40;;;;;;;-0.71;100.00;97639.02;105963;1287;59740;-79
2022/12/11 08:08:23;;;;;;;36.40;23.60;;;;;;;-0.69;100.00;97637.35;105970;1290;59744;-80
2022/12/11 08:10:49;;;;;;;28.00;19.40;;;;;;;-0.66;100.00;97641.44;105943;1290;60141;-81
2022/12/11 08:13:14;;;;;;;29.80;20.40;;;;;;;-0.66;100.00;97641.08;105903;1290;59790;-80
2022/12/11 08:15:40;;;;;;;31.10;20.00;;;;;;;-0.67;100.00;97647.91;105925;1282;59766;-80
2022/12/11 08:18:07;;;;;;;30.60;21.20;;;;;;;-0.67;100.00;97639.71;106074;1289;59810;-80
2022/12/11 08:20:33;;;;;;;31.10;21.70;;;;;;;-0.63;100.00;97642.02;105935;1283;59834;-79
2022/12/11 08:22:58;;;;;;;29.50;20.10;;;;;;;-0.60;100.00;97642.02;105977;1290;59833;-79
2022/12/11 08:25:25;;;;;;;33.60;22.20;;;;;;;-0.57;100.00;97648.36;105931;1290;60124;-79
2022/12/11 08:27:51;;;;;;;26.10;18.00;;;;;;;-0.57;100.00;97642.42;105953;1288;59707;-80
2022/12/11 08:30:17;;;;;;;33.60;20.60;;;;;;;-0.58;100.00;97645.79;105613;1295;59942;-81
2022/12/11 08:32:43;;;;;;;30.60;20.60;;;;;;;-0.61;100.00;97646.27;105928;1291;59636;-81
2022/12/11 08:35:09;;;;;;;34.40;22.70;;;;;;;-0.62;100.00;97644.77;105930;1290;59886;-80
2022/12/11 08:37:35;;;;;;;32.80;22.60;;;;;;;-0.58;100.00;97647.71;105903;1281;59680;-80
2022/12/11 08:40:01;;;;;;;36.20;24.20;;;;;;;-0.52;100.00;97644.31;105927;1290;60223;-81
2022/12/11 08:42:27;;;;;;;31.70;21.70;;;;;;;-0.49;100.00;97641.92;105629;1283;60085;-80
2022/12/11 08:44:53;;;;;;;32.60;21.80;;;;;;;-0.47;100.00;97644.76;105961;1291;59788;-80
2022/12/11 08:47:19;;;;;;;30.80;22.40;;;;;;;-0.43;100.00;97644.80;105991;1293;59739;-78
2022/12/11 08:49:45;;;;;;;27.10;19.10;;;;;;;-0.41;100.00;97645.75;105956;1284;59603;-80
2022/12/11 08:52:11;;;;;;;32.30;22.90;;;;;;;-0.42;100.00;97648.59;105951;1287;59870;-80
2022/12/11 08:54:38;;;;;;;25.60;18.90;;;;;;;-0.43;100.00;97658.92;105929;1284;59933;-79
2022/12/11 08:57:04;;;;;;;24.50;17.70;;;;;;;-0.46;100.00;97661.30;105914;1284;59768;-81
2022/12/11 08:59:30;;;;;;;24.10;17.50;;;;;;;-0.46;100.00;97662.00;105939;1283;59960;-79
2022/12/11 09:01:56;;;;;;;22.50;16.70;;;;;;;-0.42;100.00;97660.63;105948;1283;59781;-79
2022/12/11 09:04:22;;;;;;;23.90;16.30;;;;;;;-0.39;100.00;97658.04;105936;1291;59836;-80
2022/12/11 09:06:48;;;;;;;22.20;16.30;;;;;;;-0.36;100.00;97655.27;105710;1290;59837;-78
2022/12/11 09:09:14;;;;;;;22.10;16.40;;;;;;;-0.32;100.00;97653.91;105923;1290;59980;-80
2022/12/11 09:11:41;;;;;;;21.40;15.80;;;;;;;-0.30;100.00;97646.96;105933;1291;60061;-80
2022/12/11 09:14:07;;;;;;;25.30;17.90;;;;;;;-0.26;100.00;97646.96;105917;1275;59762;-78
2022/12/11 09:16:36;;;;;;;23.20;17.60;;;;;;;-0.23;100.00;97648.62;105944;1291;59657;-78
2022/12/11 09:19:03;;;;;;;26.40;20.00;;;;;;;-0.22;100.00;97645.05;105956;1290;60217;-78
2022/12/11 09:21:29;;;;;;;26.70;20.00;;;;;;;-0.16;100.00;97638.88;105934;1283;60079;-77
2022/12/11 09:23:58;;;;;;;29.80;21.80;;;;;;;-0.10;100.00;97629.84;105953;1291;59696;-78
2022/12/11 09:26:25;;;;;;;29.80;20.70;;;;;;;-0.07;100.00;97629.55;105936;1283;59677;-78
2022/12/11 09:28:52;;;;;;;30.40;20.70;;;;;;;-0.04;100.00;97629.59;105930;1290;67847;-77
2022/12/11 09:31:22;;;;;;;30.10;21.50;;;;;;;-0.00;100.00;97631.68;105947;1283;59624;-77
2022/12/11 09:33:50;;;;;;;25.80;18.60;;;;;;;0.02;100.00;97637.48;105183;1288;1002241;-78
2022/12/11 09:36:17;;;;;;;27.00;19.90;;;;;;;0.04;100.00;97639.88;105709;1285;59808;-78
2022/12/11 09:38:43;;;;;;;24.60;18.10;;;;;;;0.02;100.00;97650.58;105934;1289;60226;-79
2022/12/11 09:41:20;;;;;;;23.60;17.50;;;;;;;0.03;100.00;97652.32;103496;1291;1002694;-76
2022/12/11 09:44:15;;;;;;;27.90;20.10;;;;;;;0.03;100.00;97648.98;105933;1291;69087;-79
2022/12/11 09:46:41;;;;;;;26.40;19.10;;;;;;;0.03;100.00;97652.14;105923;1283;65196;-80
2022/12/11 09:49:40;;;;;;;31.20;20.60;;;;;;;0.00;100.00;97648.93;105927;1290;59745;-77
2022/12/11 09:52:22;;;;;;;30.30;21.30;;;;;;;-0.04;100.00;97644.42;105943;1290;59932;-80
2022/12/11 09:54:51;;;;;;;28.80;20.70;;;;;;;-0.06;100.00;97643.25;105968;1292;68266;-84
2022/12/11 09:57:24;;;;;;;29.00;20.70;;;;;;;-0.00;100.00;97636.04;105187;1290;1002486;-87
2022/12/11 10:00:11;;;;;;;28.50;20.10;;;;;;;0.10;100.00;97637.81;105936;1290;71478;-86
2022/12/11 10:03:14;;;;;;;30.00;21.90;;;;;;;0.14;100.00;97633.81;105773;1294;59794;-86
2022/12/11 10:05:50;;;;;;;22.30;16.10;;;;;;;0.21;100.00;97633.80;106105;1283;59970;-84
2022/12/11 10:08:37;;;;;;;26.00;19.00;;;;;;;0.22;100.00;97640.42;105824;1286;65683;-86
2022/12/11 10:11:33;;;;;;;25.30;18.20;;;;;;;0.19;100.00;97640.39;105984;1283;60075;-83
2022/12/11 10:14:27;;;;;;;22.30;17.00;;;;;;;0.18;100.00;97635.52;105954;1283;63793;-83
2022/12/11 10:17:03;;;;;;;22.60;17.10;;;;;;;0.15;100.00;97639.50;105977;1290;59802;-85
2022/12/11 10:19:30;;;;;;;23.30;17.00;;;;;;;0.09;100.00;97641.22;105795;1292;61473;-85
2022/12/11 10:21:58;;;;;;;27.40;17.90;;;;;;;0.04;100.00;97635.52;105939;1290;75653;-83
2022/12/11 10:24:41;;;;;;;27.10;18.80;;;;;;;0.01;100.00;97644.39;105807;1289;69034;-83
2022/12/11 10:27:18;;;;;;;26.90;17.90;;;;;;;-0.04;100.00;97646.52;105945;1289;63939;-84
2022/12/11 10:29:50;;;;;;;27.40;18.50;;;;;;;-0.04;100.00;97641.45;105967;1289;59789;-83
2022/12/11 10:32:25;;;;;;;26.50;18.70;;;;;;;0.03;100.00;97633.27;105991;1291;60146;-84
2022/12/11 10:34:59;;;;;;;29.10;20.70;;;;;;;0.06;100.00;97639.61;106016;1291;75306;-84
2022/12/11 10:37:27;;;;;;;27.20;18.80;;;;;;;0.10;100.00;97639.58;105796;1292;59910;-84
2022/12/11 10:39:53;;;;;;;28.30;20.20;;;;;;;0.16;100.00;97642.27;105950;1290;64122;-83
2022/12/11 10:42:21;;;;;;;29.80;20.40;;;;;;;0.16;100.00;97641.77;105952;1295;59788;-84
2022/12/11 10:45:01;;;;;;;33.80;23.50;;;;;;;0.18;100.00;97644.09;105790;1290;59729;-83
2022/12/11 10:47:28;;;;;;;25.20;18.90;;;;;;;0.28;100.00;97644.33;105871;1290;143278;-82
2022/12/11 10:49:57;;;;;;;27.30;19.50;;;;;;;0.30;100.00;97641.61;105689;1294;60314;-81
2022/12/11 10:52:27;;;;;;;25.10;18.00;;;;;;;0.30;100.00;97641.45;105890;1290;64916;-82
2022/12/11 10:55:07;;;;;;;26.00;18.10;;;;;;;0.31;100.00;97637.55;105924;1290;59790;-82
2022/12/11 10:57:35;;;;;;;28.30;21.30;;;;;;;0.34;100.00;97629.85;105878;1289;59736;-81
2022/12/11 11:00:05;;;;;;;29.70;22.10;;;;;;;0.40;100.00;97627.83;105935;1288;75961;-80
2022/12/11 11:02:35;;;;;;;25.40;17.60;;;;;;;0.42;100.00;97623.89;105969;1290;59547;-80
2022/12/11 11:05:12;;;;;;;;;;;;;;;0.45;100.00;97616.78;105683;1291;65017;-77
2022/12/11 11:07:40;;;;;;;22.40;16.80;;;;;;;0.45;100.00;97611.20;105879;1297;59781;-82
2022/12/11 11:10:09;;;;;;;23.70;16.70;;;;;;;0.38;100.00;97614.48;105963;1282;59566;-80
2022/12/11 11:12:42;;;;;;;21.10;15.90;;;;;;;0.38;100.00;97611.86;105946;1283;67761;-80
2022/12/11 11:15:17;;;;;;;21.20;16.40;;;;;;;0.38;100.00;97610.64;105761;1292;70355;-80
2022/12/11 11:17:46;;;;;;;21.70;16.90;;;;;;;0.39;100.00;97607.45;105884;1290;65089;-79
2022/12/11 11:20:22;;;;;;;21.80;16.90;;;;;;;0.43;100.00;97602.73;105914;1283;59801;-80
2022/12/11 11:22:52;;;;;;;22.20;16.00;;;;;;;0.43;100.00;97603.04;105936;1290;59625;-80
2022/12/11 11:25:21;;;;;;;23.00;16.80;;;;;;;0.45;100.00;97601.91;105775;1284;67900;-79